Time;durP1;ratioP1;P1;durP2;ratioP2;P2;SDS_P1;SDS_P2;PMS_P1;PMS_P2;Temp;Humidity;BMP_temperature;BMP_pressure;BME280_temperature;BME280_humidity;BME280_pressure;Samples;Min_cycle;Max_cycle;Signal;HPM_P1;HPM_P2
2022/09/10 00:04:46;;;;;;;0.47;0.20;;;12.10;99.90;;;;;;20733594;28;20034;-50
2022/09/10 00:14:51;;;;;;;0.30;0.20;;;11.90;99.90;;;;;;20732355;28;20046;-57
2022/09/10 00:24:57;;;;;;;0.10;0.10;;;11.70;99.90;;;;;;20731768;28;20037;-57
2022/09/10 00:35:00;;;;;;;0.08;0.00;;;11.50;99.90;;;;;;20747975;28;20387;-50
2022/09/10 00:45:04;;;;;;;0.32;0.10;;;11.50;99.90;;;;;;20740056;28;20041;-48
2022/09/10 00:55:08;;;;;;;0.10;0.10;;;11.60;99.90;;;;;;20753277;28;20058;-46
2022/09/10 01:05:14;;;;;;;0.95;0.00;;;11.70;99.90;;;;;;20748466;28;20041;-51
2022/09/10 01:15:48;;;;;;;0.05;0.05;;;11.90;99.90;;;;;;20746112;28;20037;-50
2022/09/10 01:26:19;;;;;;;0.57;0.00;;;12.00;99.90;;;;;;20737373;28;20119;-50
2022/09/10 01:36:27;;;;;;;0.32;0.00;;;12.10;99.90;;;;;;20731193;28;20045;-46
2022/09/10 01:46:46;;;;;;;0.20;0.00;;;11.80;99.90;;;;;;20737011;28;20066;-57
2022/09/10 01:57:14;;;;;;;0.00;0.00;;;11.70;99.90;;;;;;20760873;28;20376;-57
2022/09/10 02:07:23;;;;;;;0.00;0.00;;;11.40;99.90;;;;;;20716814;28;20034;-57
2022/09/10 02:17:34;;;;;;;0.28;0.00;;;11.20;99.90;;;;;;20710933;28;20065;-57
2022/09/10 02:27:37;;;;;;;1.10;0.00;;;11.00;99.90;;;;;;20706052;28;20042;-47
2022/09/10 02:37:40;;;;;;;1.13;0.00;;;10.90;99.90;;;;;;20773998;28;20092;-49
2022/09/10 02:47:43;;;;;;;0.00;0.00;;;10.80;99.90;;;;;;20740604;28;20112;-50
2022/09/10 02:57:45;;;;;;;0.20;0.00;;;10.70;99.90;;;;;;20715700;28;20096;-48
2022/09/10 03:07:49;;;;;;;0.00;0.00;;;10.80;99.90;;;;;;20725236;28;20042;-51
2022/09/10 03:17:53;;;;;;;0.00;0.00;;;10.90;99.90;;;;;;20723730;28;20042;-49
2022/09/10 03:27:56;;;;;;;0.00;0.00;;;11.00;99.90;;;;;;20719329;28;20034;-57
2022/09/10 03:38:01;;;;;;;0.00;0.00;;;10.80;99.90;;;;;;20709567;28;20057;-56
2022/09/10 03:48:03;;;;;;;0.10;0.00;;;10.60;99.90;;;;;;20738279;28;20050;-47
2022/09/10 03:58:06;;;;;;;0.00;0.00;;;10.50;99.90;;;;;;20734609;28;20038;-57
2022/09/10 04:08:11;;;;;;;0.20;0.00;;;10.50;99.90;;;;;;20716865;28;20034;-50
2022/09/10 04:18:14;;;;;;;0.10;0.00;;;10.60;99.90;;;;;;20753641;28;20033;-51
2022/09/10 04:28:17;;;;;;;1.85;0.10;;;10.60;99.90;;;;;;20732543;28;20092;-45
2022/09/10 04:38:22;;;;;;;1.55;0.10;;;10.70;99.90;;;;;;20734176;28;20403;-48
2022/09/10 04:48:27;;;;;;;0.30;0.10;;;10.50;99.90;;;;;;20744285;28;20073;-49
2022/09/10 04:58:31;;;;;;;0.22;0.10;;;10.50;99.90;;;;;;20729144;28;20682;-57
2022/09/10 05:08:35;;;;;;;0.00;0.00;;;10.50;99.90;;;;;;20796635;28;20068;-51
2022/09/10 05:18:38;;;;;;;0.75;0.10;;;10.40;99.90;;;;;;20769975;28;20084;-50
2022/09/10 05:28:43;;;;;;;0.00;0.00;;;10.60;99.90;;;;;;20730670;28;20034;-49
2022/09/10 05:38:49;;;;;;;0.43;0.00;;;10.90;99.90;;;;;;20725532;28;20038;-48
2022/09/10 05:48:53;;;;;;;0.32;0.00;;;10.80;99.90;;;;;;20740336;28;20049;-51
2022/09/10 05:58:55;;;;;;;0.10;0.10;;;10.40;99.90;;;;;;20712183;28;20446;-53
2022/09/10 06:08:59;;;;;;;0.00;0.00;;;10.20;99.90;;;;;;20727382;28;20545;-50
2022/09/10 06:19:20;;;;;;;0.30;0.10;;;10.30;99.90;;;;;;20769577;28;20094;-50
2022/09/10 06:29:23;;;;;;;0.08;0.05;;;10.50;99.90;;;;;;20741144;28;20044;-52
2022/09/10 06:39:27;;;;;;;0.75;0.00;;;10.50;99.90;;;;;;20753677;28;20038;-52
2022/09/10 06:49:35;;;;;;;0.40;0.00;;;11.00;99.90;;;;;;20704090;28;20486;-50
2022/09/10 06:59:40;;;;;;;0.00;0.00;;;12.40;99.90;;;;;;20728303;28;20037;-50
2022/09/10 07:09:44;;;;;;;0.35;0.10;;;13.40;99.90;;;;;;20719287;28;20109;-59
2022/09/10 07:19:50;;;;;;;0.20;0.00;;;14.30;99.90;;;;;;20756794;28;20067;-59
2022/09/10 07:29:59;;;;;;;0.10;0.00;;;14.90;99.90;;;;;;20762729;28;20561;-58
2022/09/10 07:40:03;;;;;;;0.10;0.00;;;15.60;99.90;;;;;;20718897;28;20462;-57
2022/09/10 07:50:06;;;;;;;1.35;0.10;;;16.10;99.90;;;;;;20720444;28;20045;-52
2022/09/10 08:00:13;;;;;;;0.40;0.10;;;16.60;99.90;;;;;;20708286;28;20034;-57
2022/09/10 08:10:25;;;;;;;1.17;0.20;;;17.30;99.90;;;;;;20717680;28;20038;-58
2022/09/10 08:20:28;;;;;;;0.10;0.10;;;18.40;99.90;;;;;;20729693;28;20092;-52
2022/09/10 08:30:31;;;;;;;0.45;0.22;;;19.50;99.90;;;;;;20800468;28;20435;-51
2022/09/10 08:40:34;;;;;;;0.40;0.20;;;20.20;99.90;;;;;;20772323;28;20092;-50
2022/09/10 08:50:45;;;;;;;0.88;0.30;;;20.30;99.90;;;;;;20733349;28;20046;-59
2022/09/10 09:01:01;;;;;;;0.10;0.10;;;20.50;99.90;;;;;;20738006;28;20402;-59
2022/09/10 09:11:21;;;;;;;0.47;0.17;;;20.80;99.90;;;;;;20736668;28;20088;-52
2022/09/10 09:21:53;;;;;;;1.55;0.22;;;21.10;99.30;;;;;;20745548;28;20038;-59
2022/09/10 09:32:03;;;;;;;0.40;0.20;;;21.30;95.90;;;;;;20730324;28;20395;-59
2022/09/10 09:42:18;;;;;;;0.95;0.20;;;21.70;98.40;;;;;;20710065;28;20540;-59
2022/09/10 09:52:26;;;;;;;0.20;0.20;;;21.90;98.10;;;;;;20729069;28;20057;-49
2022/09/10 10:02:29;;;;;;;0.20;0.20;;;22.10;98.10;;;;;;20758786;28;20038;-47
2022/09/10 10:12:35;;;;;;;2.28;0.20;;;22.40;97.90;;;;;;20740998;28;20391;-51
2022/09/10 10:22:40;;;;;;;0.20;0.10;;;22.50;97.70;;;;;;20743099;28;20041;-49
2022/09/10 10:32:46;;;;;;;0.17;0.15;;;22.60;95.80;;;;;;20721728;28;20104;-60
2022/09/10 10:42:52;;;;;;;0.20;0.10;;;22.80;95.30;;;;;;20725812;28;20092;-49
2022/09/10 10:53:17;;;;;;;0.10;0.10;;;22.90;96.60;;;;;;20758961;28;20100;-60
2022/09/10 11:03:53;;;;;;;0.20;0.20;;;22.90;95.90;;;;;;20720332;28;20061;-51
2022/09/10 11:14:19;;;;;;;0.22;0.20;;;23.00;95.90;;;;;;20791991;28;20140;-51
2022/09/10 11:24:33;;;;;;;1.10;0.30;;;23.10;97.50;;;;;;20628507;28;20401;-51
2022/09/10 11:34:46;;;;;;;0.98;0.25;;;23.50;95.40;;;;;;20626043;28;20074;-50
2022/09/10 11:45:04;;;;;;;0.80;0.55;;;24.20;96.90;;;;;;20625024;28;20097;-60
2022/09/10 11:55:14;;;;;;;1.70;0.60;;;24.30;98.80;;;;;;20639064;28;20109;-60
2022/09/10 12:05:35;;;;;;;0.95;0.40;;;24.30;95.60;;;;;;20748380;28;20033;-61
2022/09/10 12:15:38;;;;;;;0.95;0.50;;;24.50;98.20;;;;;;20780614;28;20092;-46
2022/09/10 12:25:41;;;;;;;0.98;0.80;;;24.80;94.50;;;;;;20766244;28;20038;-49
2022/09/10 12:35:48;;;;;;;1.13;0.70;;;25.20;95.70;;;;;;20749858;28;20029;-51
2022/09/10 12:46:16;;;;;;;2.17;0.70;;;23.80;95.90;;;;;;20733329;28;20030;-49
2022/09/10 12:56:24;;;;;;;3.60;0.57;;;22.50;99.40;;;;;;20746063;28;20042;-49
2022/09/10 13:06:43;;;;;;;1.15;0.60;;;22.10;97.70;;;;;;20759744;28;20034;-60
2022/09/10 13:16:46;;;;;;;0.93;0.60;;;20.80;99.30;;;;;;20735437;28;20636;-59
2022/09/10 13:27:01;;;;;;;2.05;0.85;;;20.30;99.90;;;;;;20744963;28;20445;-59
2022/09/10 13:37:32;;;;;;;1.05;0.70;;;20.30;99.90;;;;;;20729951;28;20107;-50
2022/09/10 13:47:45;;;;;;;2.60;0.90;;;21.00;99.90;;;;;;20731906;28;20054;-50
2022/09/10 13:57:51;;;;;;;1.70;0.70;;;21.50;99.90;;;;;;20721505;28;20030;-48
2022/09/10 14:08:06;;;;;;;4.47;0.80;;;21.60;99.90;;;;;;20726754;28;20056;-53
2022/09/10 14:18:10;;;;;;;1.75;0.55;;;21.50;99.90;;;;;;20728065;28;20101;-61
2022/09/10 14:28:15;;;;;;;0.82;0.60;;;21.00;99.00;;;;;;20739236;28;20080;-59
2022/09/10 14:38:29;;;;;;;1.15;0.50;;;19.80;99.90;;;;;;20728071;28;20112;-55
2022/09/10 14:48:36;;;;;;;1.23;0.55;;;19.50;99.90;;;;;;20729970;28;20115;-50
2022/09/10 14:58:39;;;;;;;1.15;0.43;;;18.50;99.90;;;;;;20734157;28;20034;-59
2022/09/10 15:08:41;;;;;;;2.42;0.60;;;18.60;99.90;;;;;;20735902;28;20172;-50
2022/09/10 15:18:44;;;;;;;1.15;0.50;;;18.20;99.90;;;;;;20720577;28;20096;-50
2022/09/10 15:28:47;;;;;;;2.40;0.75;;;17.60;99.90;;;;;;20751650;28;20034;-57
2022/09/10 15:38:51;;;;;;;0.80;0.70;;;17.10;99.90;;;;;;20738230;28;20135;-48
2022/09/10 15:48:57;;;;;;;1.50;0.60;;;16.70;99.90;;;;;;20738982;28;20061;-51
2022/09/10 15:59:00;;;;;;;1.33;0.57;;;16.40;99.90;;;;;;20729815;28;20037;-48
2022/09/10 16:09:09;;;;;;;2.40;1.05;;;15.60;99.90;;;;;;20734295;28;20037;-48
2022/09/10 16:19:12;;;;;;;2.15;0.90;;;14.80;99.90;;;;;;20734205;28;20072;-59
2022/09/10 16:29:18;;;;;;;1.65;0.70;;;14.20;99.90;;;;;;20763527;28;20096;-48
2022/09/10 16:39:21;;;;;;;1.77;0.75;;;13.70;99.90;;;;;;20772933;28;20030;-59
2022/09/10 16:49:25;;;;;;;2.83;0.80;;;13.40;99.90;;;;;;20730673;28;20112;-48
2022/09/10 16:59:29;;;;;;;1.02;0.70;;;13.20;99.90;;;;;;20729520;28;20034;-50
2022/09/10 17:09:31;;;;;;;4.47;2.08;;;13.10;99.90;;;;;;20741645;28;20034;-49
2022/09/10 17:19:36;;;;;;;2.00;1.00;;;13.10;99.90;;;;;;20735463;28;20060;-50
2022/09/10 17:29:39;;;;;;;3.42;1.67;;;13.10;99.90;;;;;;20761928;28;20029;-50
2022/09/10 17:39:43;;;;;;;2.05;1.58;;;13.40;99.90;;;;;;20725817;28;20064;-56
2022/09/10 17:49:47;;;;;;;2.33;1.50;;;13.20;99.90;;;;;;20744249;28;20046;-59
2022/09/10 17:59:51;;;;;;;3.75;1.92;;;12.80;99.90;;;;;;20767296;28;20559;-49
2022/09/10 18:09:53;;;;;;;4.90;2.70;;;12.60;99.90;;;;;;20724870;28;20033;-57
2022/09/10 18:19:57;;;;;;;5.50;1.90;;;12.70;99.90;;;;;;20740549;28;20041;-50
2022/09/10 18:30:00;;;;;;;5.50;4.20;;;12.80;99.90;;;;;;20721186;28;20038;-49
2022/09/10 18:40:04;;;;;;;4.78;3.92;;;13.00;99.90;;;;;;20705370;28;20030;-58
2022/09/10 18:50:09;;;;;;;4.75;2.80;;;12.90;99.90;;;;;;20750042;28;20124;-58
2022/09/10 19:00:13;;;;;;;7.35;3.92;;;12.70;99.90;;;;;;20753627;28;20034;-50
2022/09/10 19:10:16;;;;;;;6.53;3.42;;;12.30;99.90;;;;;;20722480;28;20418;-47
2022/09/10 19:20:19;;;;;;;3.88;2.78;;;12.20;99.90;;;;;;20744370;28;20091;-57
2022/09/10 19:30:22;;;;;;;7.10;3.10;;;12.10;99.90;;;;;;20748041;28;20383;-49
2022/09/10 19:40:24;;;;;;;4.60;2.38;;;12.10;99.90;;;;;;20735199;28;20038;-49
2022/09/10 19:50:28;;;;;;;3.20;2.33;;;12.40;99.90;;;;;;20705898;28;20054;-58
2022/09/10 20:00:31;;;;;;;5.72;3.58;;;12.40;99.90;;;;;;20760667;28;20041;-52
2022/09/10 20:10:35;;;;;;;8.05;5.35;;;12.00;99.90;;;;;;20737552;28;20061;-58
2022/09/10 20:20:39;;;;;;;7.60;4.82;;;11.70;99.90;;;;;;20742370;28;20104;-52
2022/09/10 20:30:42;;;;;;;8.23;5.05;;;11.50;99.90;;;;;;20742915;28;20444;-59
2022/09/10 20:40:47;;;;;;;7.22;4.93;;;11.70;99.90;;;;;;20747720;28;20096;-48
2022/09/10 20:50:57;;;;;;;9.52;5.93;;;12.10;99.90;;;;;;20732764;28;20046;-58
2022/09/10 21:01:15;;;;;;;8.73;5.65;;;12.20;99.90;;;;;;20745672;28;20042;-49
2022/09/10 21:11:20;;;;;;;11.15;7.43;;;12.40;99.90;;;;;;20728496;28;20037;-50
2022/09/10 21:21:25;;;;;;;8.50;6.25;;;12.30;99.90;;;;;;20743937;28;20045;-58
2022/09/10 21:31:29;;;;;;;10.75;6.18;;;12.50;99.90;;;;;;20740073;28;20445;-49
2022/09/10 21:41:38;;;;;;;10.35;6.40;;;12.70;99.90;;;;;;20759070;28;20110;-49
2022/09/10 21:51:42;;;;;;;4.13;2.10;;;12.90;99.90;;;;;;20725020;28;20109;-48
2022/09/10 22:01:46;;;;;;;3.28;1.73;;;13.10;99.90;;;;;;20720257;28;20038;-50
2022/09/10 22:11:50;;;;;;;1.42;1.10;;;13.20;99.90;;;;;;20729402;28;20029;-49
2022/09/10 22:21:54;;;;;;;1.92;1.40;;;13.10;99.90;;;;;;20713093;28;20042;-51
2022/09/10 22:31:57;;;;;;;2.08;1.65;;;13.00;99.90;;;;;;20723695;28;20034;-51
2022/09/10 22:42:00;;;;;;;1.98;1.30;;;13.10;99.90;;;;;;20722053;28;20041;-46
2022/09/10 22:52:03;;;;;;;2.15;0.93;;;13.10;99.90;;;;;;20720254;28;20100;-51
2022/09/10 23:02:06;;;;;;;1.50;0.90;;;13.10;99.90;;;;;;20740072;28;20116;-47
2022/09/10 23:12:09;;;;;;;1.65;0.90;;;13.00;99.90;;;;;;20755580;28;20042;-49
2022/09/10 23:22:11;;;;;;;0.70;0.50;;;13.00;99.90;;;;;;20747497;28;20037;-52
2022/09/10 23:32:14;;;;;;;3.00;0.43;;;13.00;99.90;;;;;;20719019;28;20108;-51
2022/09/10 23:42:16;;;;;;;1.20;0.65;;;12.90;99.90;;;;;;20751843;28;20046;-51
2022/09/10 23:52:19;;;;;;;1.60;0.40;;;13.00;99.90;;;;;;20741051;28;20104;-58
